SHARE
TWEET

GPS LogMee

qw5646 Jan 18th, 2014 60 Never
Not a member of Pastebin yet? Sign Up, it unlocks many cool features!
  1. <gpx creator="GPS LogMee" version="1.x">
  2.    <wpt lat="41.574670393019915" lon="24.71629665233195"><ele>920</ele><name>Start Point</name><sym>Trail Head</sym></wpt>
  3.    <trk>
  4.    <name>GPS LogMee Track</name>
  5.        <trkseg>
  6.          <trkpt lat="41.57459386624396" lon="24.716360354796052">
  7.            <time>Sat Jan 18 2014 14:01:32 GMT+0200 (EET)</time>
  8.            <ele>938</ele>
  9.          </trkpt>
  10.          <trkpt lat="41.57462068833411" lon="24.716290701180696">
  11.            <time>Sat Jan 18 2014 14:01:36 GMT+0200 (EET)</time>
  12.            <ele>938.5</ele>
  13.          </trkpt>
  14.          <trkpt lat="41.57464801333845" lon="24.716293970122933">
  15.            <time>Sat Jan 18 2014 14:01:38 GMT+0200 (EET)</time>
  16.            <ele>938</ele>
  17.          </trkpt>
  18.          <trkpt lat="41.574650360271335" lon="24.716278463602066">
  19.            <time>Sat Jan 18 2014 14:01:42 GMT+0200 (EET)</time>
  20.            <ele>938.5</ele>
  21.          </trkpt>
  22.          <trkpt lat="41.57467030920088" lon="24.716251892969012">
  23.            <time>Sat Jan 18 2014 14:01:46 GMT+0200 (EET)</time>
  24.            <ele>938</ele>
  25.          </trkpt>
  26.          <trkpt lat="41.574677266180515" lon="24.71624007448554">
  27.            <time>Sat Jan 18 2014 14:01:48 GMT+0200 (EET)</time>
  28.            <ele>937.5</ele>
  29.          </trkpt>
  30.          <trkpt lat="41.57467835582793" lon="24.71622096374631">
  31.            <time>Sat Jan 18 2014 14:01:50 GMT+0200 (EET)</time>
  32.            <ele>937</ele>
  33.          </trkpt>
  34.          <trkpt lat="41.57469411380589" lon="24.716190118342638">
  35.            <time>Sat Jan 18 2014 14:01:52 GMT+0200 (EET)</time>
  36.            <ele>940.5</ele>
  37.          </trkpt>
  38.          <trkpt lat="41.57469310797751" lon="24.716154914349318">
  39.            <time>Sat Jan 18 2014 14:01:54 GMT+0200 (EET)</time>
  40.            <ele>939</ele>
  41.          </trkpt>
  42.          <trkpt lat="41.57470668666065" lon="24.716140581294894">
  43.            <time>Sat Jan 18 2014 14:01:56 GMT+0200 (EET)</time>
  44.            <ele>939.5</ele>
  45.          </trkpt>
  46.          <trkpt lat="41.57471205107868" lon="24.716118285432458">
  47.            <time>Sat Jan 18 2014 14:02:00 GMT+0200 (EET)</time>
  48.            <ele>934.5</ele>
  49.          </trkpt>
  50.          <trkpt lat="41.5747126378119" lon="24.716114848852158">
  51.            <time>Sat Jan 18 2014 14:02:02 GMT+0200 (EET)</time>
  52.            <ele>933</ele>
  53.          </trkpt>
  54.          <trkpt lat="41.57473627477884" lon="24.716092217713594">
  55.            <time>Sat Jan 18 2014 14:02:06 GMT+0200 (EET)</time>
  56.            <ele>933.5</ele>
  57.          </trkpt>
  58.          <trkpt lat="41.57474893145263" lon="24.716092636808753">
  59.            <time>Sat Jan 18 2014 14:02:08 GMT+0200 (EET)</time>
  60.            <ele>933</ele>
  61.          </trkpt>
  62.          <trkpt lat="41.57474499195814" lon="24.71609339118004">
  63.            <time>Sat Jan 18 2014 14:02:12 GMT+0200 (EET)</time>
  64.            <ele>934</ele>
  65.          </trkpt>
  66.          <trkpt lat="41.574742225930095" lon="24.716089954599738">
  67.            <time>Sat Jan 18 2014 14:02:14 GMT+0200 (EET)</time>
  68.            <ele>933.5</ele>
  69.          </trkpt>
  70.          <trkpt lat="41.57473652623594" lon="24.716088781133294">
  71.            <time>Sat Jan 18 2014 14:02:18 GMT+0200 (EET)</time>
  72.            <ele>933</ele>
  73.          </trkpt>
  74.          <trkpt lat="41.574730072170496" lon="24.716079058125615">
  75.            <time>Sat Jan 18 2014 14:02:20 GMT+0200 (EET)</time>
  76.            <ele>932.5</ele>
  77.          </trkpt>
  78.          <trkpt lat="41.57473820261657" lon="24.7160729393363">
  79.            <time>Sat Jan 18 2014 14:02:24 GMT+0200 (EET)</time>
  80.            <ele>933</ele>
  81.          </trkpt>
  82.          <trkpt lat="41.57473769970238" lon="24.716073106974363">
  83.            <time>Sat Jan 18 2014 14:02:26 GMT+0200 (EET)</time>
  84.            <ele>933</ele>
  85.          </trkpt>
  86.          <trkpt lat="41.57472864724696" lon="24.716029269620776">
  87.            <time>Sat Jan 18 2014 14:02:30 GMT+0200 (EET)</time>
  88.            <ele>933</ele>
  89.          </trkpt>
  90.          <trkpt lat="41.57473711296916" lon="24.71599817276001">
  91.            <time>Sat Jan 18 2014 14:02:32 GMT+0200 (EET)</time>
  92.            <ele>931.5</ele>
  93.          </trkpt>
  94.          <trkpt lat="41.574745662510395" lon="24.71599280834198">
  95.            <time>Sat Jan 18 2014 14:02:36 GMT+0200 (EET)</time>
  96.            <ele>931.5</ele>
  97.          </trkpt>
  98.          <trkpt lat="41.574746081605554" lon="24.715992556884885">
  99.            <time>Sat Jan 18 2014 14:02:38 GMT+0200 (EET)</time>
  100.            <ele>931</ele>
  101.          </trkpt>
  102.          <trkpt lat="41.57474448904395" lon="24.715979481115937">
  103.            <time>Sat Jan 18 2014 14:02:42 GMT+0200 (EET)</time>
  104.            <ele>931</ele>
  105.          </trkpt>
  106.          <trkpt lat="41.57473987899721" lon="24.715984929353">
  107.            <time>Sat Jan 18 2014 14:02:44 GMT+0200 (EET)</time>
  108.            <ele>931</ele>
  109.          </trkpt>
  110.          <trkpt lat="41.574733005836606" lon="24.715997083112597">
  111.            <time>Sat Jan 18 2014 14:02:48 GMT+0200 (EET)</time>
  112.            <ele>931</ele>
  113.          </trkpt>
  114.          <trkpt lat="41.57470928505063" lon="24.716035556048155">
  115.            <time>Sat Jan 18 2014 14:02:50 GMT+0200 (EET)</time>
  116.            <ele>930.5</ele>
  117.          </trkpt>
  118.          <trkpt lat="41.57474557869136" lon="24.716033544391394">
  119.            <time>Sat Jan 18 2014 14:02:54 GMT+0200 (EET)</time>
  120.            <ele>927.5</ele>
  121.          </trkpt>
  122.          <trkpt lat="41.574732922017574" lon="24.71604947000742">
  123.            <time>Sat Jan 18 2014 14:02:56 GMT+0200 (EET)</time>
  124.            <ele>928</ele>
  125.          </trkpt>
  126.          <trkpt lat="41.574715906754136" lon="24.716091714799404">
  127.            <time>Sat Jan 18 2014 14:03:00 GMT+0200 (EET)</time>
  128.            <ele>927</ele>
  129.          </trkpt>
  130.          <trkpt lat="41.574697298929095" lon="24.71608660183847">
  131.            <time>Sat Jan 18 2014 14:03:02 GMT+0200 (EET)</time>
  132.            <ele>926.5</ele>
  133.          </trkpt>
  134.          <trkpt lat="41.57469897530973" lon="24.71607738174498">
  135.            <time>Sat Jan 18 2014 14:03:06 GMT+0200 (EET)</time>
  136.            <ele>926.5</ele>
  137.          </trkpt>
  138.          <trkpt lat="41.57468564808369" lon="24.71608073450625">
  139.            <time>Sat Jan 18 2014 14:03:08 GMT+0200 (EET)</time>
  140.            <ele>925.5</ele>
  141.          </trkpt>
  142.          <trkpt lat="41.574690006673336" lon="24.716093726456165">
  143.            <time>Sat Jan 18 2014 14:03:12 GMT+0200 (EET)</time>
  144.            <ele>925</ele>
  145.          </trkpt>
  146.          <trkpt lat="41.574676260352135" lon="24.716111244633794">
  147.            <time>Sat Jan 18 2014 14:03:14 GMT+0200 (EET)</time>
  148.            <ele>924.5</ele>
  149.          </trkpt>
  150.          <trkpt lat="41.57462915405631" lon="24.716166397556663">
  151.            <time>Sat Jan 18 2014 14:03:18 GMT+0200 (EET)</time>
  152.            <ele>922.5</ele>
  153.          </trkpt>
  154.          <trkpt lat="41.57461532391608" lon="24.716188022866845">
  155.            <time>Sat Jan 18 2014 14:03:20 GMT+0200 (EET)</time>
  156.            <ele>923</ele>
  157.          </trkpt>
  158.          <trkpt lat="41.574661592021585" lon="24.716364294290543">
  159.            <time>Sat Jan 18 2014 14:03:24 GMT+0200 (EET)</time>
  160.            <ele>922.5</ele>
  161.          </trkpt>
  162.          <trkpt lat="41.574632255360484" lon="24.71635105088353">
  163.            <time>Sat Jan 18 2014 14:03:26 GMT+0200 (EET)</time>
  164.            <ele>922</ele>
  165.          </trkpt>
  166.          <trkpt lat="41.57458028756082" lon="24.716354236006737">
  167.            <time>Sat Jan 18 2014 14:03:30 GMT+0200 (EET)</time>
  168.            <ele>921.5</ele>
  169.          </trkpt>
  170.          <trkpt lat="41.57456846907735" lon="24.716352140530944">
  171.            <time>Sat Jan 18 2014 14:03:32 GMT+0200 (EET)</time>
  172.            <ele>922</ele>
  173.          </trkpt>
  174.          <trkpt lat="41.57453720457852" lon="24.716353649273515">
  175.            <time>Sat Jan 18 2014 14:03:36 GMT+0200 (EET)</time>
  176.            <ele>920.5</ele>
  177.          </trkpt>
  178.          <trkpt lat="41.574533181265" lon="24.716362031176686">
  179.            <time>Sat Jan 18 2014 14:03:38 GMT+0200 (EET)</time>
  180.            <ele>920.5</ele>
  181.          </trkpt>
  182.          <trkpt lat="41.57452505081892" lon="24.7163509670645">
  183.            <time>Sat Jan 18 2014 14:03:43 GMT+0200 (EET)</time>
  184.            <ele>921</ele>
  185.          </trkpt>
  186.          <trkpt lat="41.57455002889037" lon="24.716231022030115">
  187.            <time>Sat Jan 18 2014 14:03:45 GMT+0200 (EET)</time>
  188.            <ele>921</ele>
  189.          </trkpt>
  190.          <trkpt lat="41.574572743847966" lon="24.716259855777025">
  191.            <time>Sat Jan 18 2014 14:03:47 GMT+0200 (EET)</time>
  192.            <ele>922.5</ele>
  193.          </trkpt>
  194.          <trkpt lat="41.57457374967635" lon="24.716248037293553">
  195.            <time>Sat Jan 18 2014 14:03:51 GMT+0200 (EET)</time>
  196.            <ele>922.5</ele>
  197.          </trkpt>
  198.          <trkpt lat="41.574561009183526" lon="24.716249462217093">
  199.            <time>Sat Jan 18 2014 14:03:53 GMT+0200 (EET)</time>
  200.            <ele>923</ele>
  201.          </trkpt>
  202.          <trkpt lat="41.57455639913678" lon="24.716258933767676">
  203.            <time>Sat Jan 18 2014 14:03:57 GMT+0200 (EET)</time>
  204.            <ele>923</ele>
  205.          </trkpt>
  206.          <trkpt lat="41.57455639913678" lon="24.71628005616367">
  207.            <time>Sat Jan 18 2014 14:03:59 GMT+0200 (EET)</time>
  208.            <ele>922.5</ele>
  209.          </trkpt>
  210.          <trkpt lat="41.57458649016917" lon="24.716286174952984">
  211.            <time>Sat Jan 18 2014 14:04:03 GMT+0200 (EET)</time>
  212.            <ele>919</ele>
  213.          </trkpt>
  214.        </trkseg>
  215.    </trk>
  216. </gpx>
RAW Paste Data
We use cookies for various purposes including analytics. By continuing to use Pastebin, you agree to our use of cookies as described in the Cookies Policy. OK, I Understand
 
Top